Relevés horaires Kleine Brogel (Belgique)


Relevés horaires à Kleine Brogel - Lundi 29 Avr. 2024
Heure UTC1 Température [°C] Vent [km/h] Hum. [%] Pres.4 [hPa] Visi. [Km] Nébu. [octa] Préc.5 [mm] Cond.
2m. Res. Ros. Dir.2 Vit. Moy. Raf.3
23:00 14.5 14.5 9.4 SSO 3.7 -- 5.6 71 1018.7(0.1/3h) >70 -- -- --
22:00 14.6 14.6 9.3 NNO 1.9 -- 5.6 70 1018.7(0.4/3h) 20 7/8 -- --
21:00 13.8 13.8 8.8 NNO 1.9 -- 5.6 72 1018.8(0.7/3h) 20 7/8 -- --
20:00 14.1 14.1 8.6 NNO 1.9 -- 1.9 69 1018.7(0.5/3h) 20 7/8 -- --
19:00 16.2 16.2 7.7 NNO 1.9 -- 3.7 57 1018.2(0.0/3h) 20 7/8 -- --
18:00 17.6 17.6 7.6 NNO 1.9 -- 14.8 52 1018.1(-0.4/3h) 20 7/8 -- --
17:00 18.5 18.5 6.8 NNO 1.9 -- 9.3 46 1018.1(-0.7/3h) 20 7/8 -- --
16:00 18.7 18.7 6.0 SSE 3.7 -- 9.3 43 1018.2(-0.8/3h) 20 7/8 -- --
15:00 18.9 18.9 5.4 SSO 5.6 -- 14.8 41 1018.5(-0.8/3h) 20 7/8 -- --
14:00 19.1 19.1 4.8 S 3.7 -- 13.0 39 1018.7(-0.6/3h) 20 7/8 -- --
13:00 19.9 19.9 5.7 S 5.6 -- 14.8 39 1019.1(-0.9/3h) 20 4/8 -- --
12:00 19.4 19.4 5.9 SSO 7.4 -- 13.0 41 1019.3(-0.9/3h) 20 4/8 -- --
11:00 18.9 18.9 7.8 SSO 5.6 -- 13.0 48 1019.5(-0.3/3h) 20 4/8 -- --
10:00 16.3 16.3 6.4 S 3.7 -- 13.0 52 1020.1(0.3/3h) 20 4/8 -- --
09:00 15.2 15.2 8.2 SSO 5.6 -- 11.1 63 1020.3(0.9/3h) 20 4/8 -- --
08:00 13.3 13.3 8.2 SSO 5.6 -- 7.4 71 1020.1(0.8/3h) 20 4/8 -- --
07:00 11.6 11.6 7.9 SSO 3.7 -- 7.4 78 1019.8(1.2/3h) 20 4/8 -- --
06:00 9.6 9.6 7.6 NNO 1.9 -- 5.6 87 1019.5(1.1/3h) 20 5/8 -- --
05:00 7.4 7.4 6.1 NNO 1.9 -- 5.6 91 1019.3(1.2/3h) 20 5/8 -- --
04:00 6.9 6.9 5.4 NNO 1.9 -- 5.6 90 1018.7(0.9/3h) >70 -- -- --
03:00 6.9 6.9 5.1 S 3.7 -- 5.6 88 1018.3(0.8/3h) >70 -- -- --
02:00 5.9 5.9 4.6 NNO 1.9 -- 5.6 91 1018.1(0.8/3h) >70 -- -- --
01:00 6.7 6.7 5.4 NNO 1.9 -- 3.7 91 1017.7(1.0/3h) >70 -- -- --
00:00 6.7 6.7 5.2 NNO 1.9 -- 18.5 90 1017.6(1.2/3h) >70 -- -- --

1 Coordinated Universal Time. Actuellement il est 01:00 locale et 23:00 UTC.

2 Le vent souffle depuis la direction indiquée vers la direction oposée.

3 Les rafales max. sont disponible 40 min après l'heure du relevé.

4 Pour les stations d'altitude (plus de 600m) le géopotentiel du niveau le plus proche de la pression obligatoire est indiqué.

5 Les stations disposant d'un diffuseur peuvent indiquer "trace". Cela signifie que des précipitations ont touchés le sol mais que la quantité est inférieure à 0.1 mm.

Récapitulatif de la journée
Température [°C] Vent [km/h] Ensoleillement4 [h] Precipitations totale5 [mm] Pression [Hpa]
Min1 Max.2 Moy.3 Max. Min Max.
5.1 20.1 0 18.5 0 h 0 min 0 1017.6 1020.3

1 Température minimale relevée entre 18:00 UTC la veille et 18:00 UTC le jour donné.

2 Température maximale relevée entre 06:00 UTC le jour donné et 06:00 UTC le lendemain.

3 Vent moyen de la journée basé sur les relevés horaires.

4 Ensoleillement en heures relevé entre 06:00 UTC la veille et 06:00 UTC le jour donné.

5 Précipitations totales tombées entre 06:00 UTC la jour donné et 06:00 UTC le lendemain.

Graphiques horaires